createdAt,value
2017-11-29T00:00:30.405Z,82.10
2017-11-29T00:02:59.288Z,82.24
2017-11-29T00:05:28.392Z,82.86
2017-11-29T00:07:57.445Z,83.07
2017-11-29T00:10:27.570Z,83.66
2017-11-29T00:12:56.561Z,84.02
2017-11-29T00:15:25.852Z,84.11
2017-11-29T00:17:55.776Z,84.25
2017-11-29T00:20:24.973Z,83.58
2017-11-29T00:22:54.066Z,83.38
2017-11-29T00:25:24.909Z,83.18
2017-11-29T00:27:53.997Z,83.32
2017-11-29T00:30:23.820Z,83.85
2017-11-29T00:32:53.625Z,84.10
2017-11-29T00:35:23.610Z,84.18
2017-11-29T00:37:52.942Z,83.83
2017-11-29T00:40:23.888Z,83.81
2017-11-29T00:42:53.063Z,83.85
2017-11-29T00:45:22.842Z,83.77
2017-11-29T00:47:51.887Z,83.51
2017-11-29T00:50:21.223Z,83.64
2017-11-29T00:52:50.271Z,83.81
2017-11-29T00:55:22.293Z,83.95
2017-11-29T00:57:51.350Z,84.22
2017-11-29T01:00:20.591Z,84.18
2017-11-29T01:02:49.778Z,84.04
2017-11-29T01:05:20.063Z,84.60
2017-11-29T01:07:49.056Z,85.02
2017-11-29T01:10:18.053Z,84.78
2017-11-29T01:12:49.552Z,84.55
2017-11-29T01:17:52.300Z,85.25
2017-11-29T01:20:21.705Z,85.17
2017-11-29T01:22:51.184Z,85.08
2017-11-29T01:25:20.301Z,85.55
2017-11-29T01:27:50.361Z,85.64
2017-11-29T01:30:19.344Z,85.52
2017-11-29T01:32:48.203Z,85.36
2017-11-29T01:35:17.194Z,85.36
2017-11-29T01:37:48.804Z,85.25
2017-11-29T01:40:18.644Z,85.40
2017-11-29T01:42:47.824Z,85.61
2017-11-29T01:45:16.999Z,85.31
2017-11-29T01:47:46.149Z,84.92
2017-11-29T01:50:15.420Z,84.93
2017-11-29T01:52:47.334Z,85.28
2017-11-29T01:55:16.325Z,85.37
2017-11-29T01:57:46.601Z,85.38
2017-11-29T02:02:49.724Z,85.24
2017-11-29T02:05:19.657Z,85.24
2017-11-29T02:07:49.366Z,85.41
2017-11-29T02:10:18.463Z,85.45
2017-11-29T02:12:48.735Z,85.42
2017-11-29T02:15:18.603Z,85.15
2017-11-29T02:17:47.802Z,85.18
2017-11-29T02:20:16.995Z,85.57
2017-11-29T02:22:46.597Z,85.58
2017-11-29T02:25:17.281Z,85.80
2017-11-29T02:27:49.142Z,85.99
2017-11-29T02:30:19.526Z,86.06
2017-11-29T02:32:48.670Z,85.91
2017-11-29T02:37:52.339Z,85.76
2017-11-29T02:40:33.315Z,85.97
2017-11-29T02:43:04.250Z,85.97
2017-11-29T02:45:33.762Z,86.16
2017-11-29T02:48:02.957Z,86.53
2017-11-29T02:50:34.814Z,86.88
2017-11-29T02:53:04.934Z,86.76
2017-11-29T02:55:35.858Z,86.94
2017-11-29T02:58:04.980Z,87.12
2017-11-29T03:00:35.024Z,86.74
2017-11-29T03:03:04.296Z,86.37
2017-11-29T03:05:34.064Z,85.91
2017-11-29T03:08:03.910Z,85.75
2017-11-29T03:10:35.677Z,85.96
2017-11-29T03:13:05.486Z,85.60
2017-11-29T03:15:34.477Z,85.49
2017-11-29T03:20:38.813Z,84.92
2017-11-29T03:23:09.757Z,84.91
2017-11-29T03:25:38.744Z,85.07
2017-11-29T03:28:08.144Z,84.69
2017-11-29T03:30:37.141Z,84.77
2017-11-29T03:33:06.125Z,84.77
2017-11-29T03:35:36.149Z,85.39
2017-11-29T03:38:05.855Z,86.03
2017-11-29T03:40:37.712Z,86.16
2017-11-29T03:43:07.476Z,85.74
2017-11-29T03:45:36.426Z,86.01
2017-11-29T03:48:09.105Z,86.41
2017-11-29T03:50:38.044Z,86.52
2017-11-29T03:53:07.027Z,86.67
2017-11-29T03:55:36.136Z,86.11
2017-11-29T03:58:05.286Z,85.95
2017-11-29T04:00:34.229Z,85.98
2017-11-29T04:03:06.519Z,85.96
2017-11-29T04:05:35.638Z,85.69
2017-11-29T04:08:04.847Z,85.50
2017-11-29T04:10:34.287Z,85.50
2017-11-29T04:13:03.277Z,85.07
2017-11-29T04:15:33.203Z,84.46
2017-11-29T04:18:04.094Z,83.92
2017-11-29T04:20:33.187Z,83.47
2017-11-29T04:23:02.908Z,83.39
2017-11-29T04:25:35.574Z,83.23
2017-11-29T04:28:04.874Z,82.75
2017-11-29T04:30:33.971Z,82.23
2017-11-29T04:33:06.240Z,82.71
2017-11-29T04:35:35.333Z,82.40
2017-11-29T04:38:05.336Z,82.36
2017-11-29T04:40:36.103Z,81.70
2017-11-29T04:43:05.182Z,81.44
2017-11-29T04:45:34.284Z,81.11
2017-11-29T04:48:03.246Z,80.90
2017-11-29T04:50:32.371Z,80.58
2017-11-29T04:53:01.466Z,79.95
2017-11-29T04:55:30.762Z,79.90
2017-11-29T04:58:00.791Z,79.86
2017-11-29T05:00:30.082Z,79.26
2017-11-29T05:03:01.742Z,78.76
2017-11-29T05:05:31.655Z,78.81
2017-11-29T05:08:00.627Z,78.13
2017-11-29T05:10:30.154Z,77.23
2017-11-29T05:12:59.906Z,77.39
2017-11-29T05:15:31.929Z,77.00
2017-11-29T05:18:01.126Z,75.96
2017-11-29T05:20:30.428Z,75.42
2017-11-29T05:22:59.861Z,75.23
2017-11-29T05:25:29.090Z,74.60
2017-11-29T05:27:59.040Z,74.36
2017-11-29T05:30:29.790Z,74.25
2017-11-29T05:32:59.385Z,74.09
2017-11-29T05:35:29.421Z,73.28
2017-11-29T05:37:58.604Z,73.17
2017-11-29T05:40:27.844Z,73.07
2017-11-29T05:42:56.991Z,72.59
2017-11-29T05:45:28.645Z,72.85
2017-11-29T05:47:57.750Z,72.91
2017-11-29T05:50:26.888Z,72.44
2017-11-29T05:52:56.149Z,72.14
2017-11-29T05:55:26.242Z,73.57
2017-11-29T05:57:55.416Z,73.82
2017-11-29T06:00:24.701Z,73.01
2017-11-29T06:02:54.696Z,73.17
2017-11-29T06:05:23.943Z,74.00
2017-11-29T06:07:53.110Z,72.96
2017-11-29T06:10:23.090Z,73.61
2017-11-29T06:12:52.369Z,74.11
2017-11-29T06:15:23.110Z,74.19
2017-11-29T06:17:52.252Z,74.41
2017-11-29T06:20:22.243Z,74.30
2017-11-29T06:22:51.439Z,74.17
2017-11-29T06:25:21.396Z,73.96
2017-11-29T06:27:51.671Z,74.11
2017-11-29T06:30:23.642Z,74.19
2017-11-29T06:32:53.357Z,73.47
2017-11-29T06:35:22.536Z,73.94
2017-11-29T06:37:51.512Z,73.38
2017-11-29T06:40:28.325Z,72.59
2017-11-29T06:42:58.243Z,72.63
2017-11-29T06:45:28.235Z,72.07
2017-11-29T06:47:57.388Z,72.50
2017-11-29T06:50:28.061Z,71.44
2017-11-29T06:52:58.863Z,71.41
2017-11-29T06:55:32.299Z,70.68
2017-11-29T06:58:02.131Z,70.58
2017-11-29T07:00:32.144Z,70.76
2017-11-29T07:03:01.342Z,70.54
2017-11-29T07:05:31.864Z,69.21
2017-11-29T07:08:00.875Z,68.45
2017-11-29T07:10:30.144Z,69.15
2017-11-29T07:13:02.458Z,68.90
2017-11-29T07:15:36.837Z,67.87
2017-11-29T07:18:08.058Z,67.46
2017-11-29T07:20:38.233Z,67.19
2017-11-29T07:23:07.405Z,66.33
2017-11-29T07:25:36.730Z,65.17
2017-11-29T07:28:06.032Z,66.82
2017-11-29T07:30:35.100Z,65.24
2017-11-29T07:33:05.731Z,65.41
2017-11-29T07:35:34.695Z,63.68
2017-11-29T07:38:03.816Z,63.17
2017-11-29T07:40:33.741Z,63.20
2017-11-29T07:43:02.992Z,61.58
2017-11-29T07:45:31.869Z,61.51
2017-11-29T07:48:00.904Z,61.58
2017-11-29T07:53:04.905Z,60.87
2017-11-29T07:55:37.080Z,61.17
2017-11-29T07:58:07.064Z,61.03
2017-11-29T08:00:35.988Z,60.94
2017-11-29T08:03:07.154Z,60.97
2017-11-29T08:05:36.932Z,61.28
2017-11-29T08:08:05.934Z,60.55
2017-11-29T08:10:35.697Z,60.47
2017-11-29T08:13:06.476Z,60.09
2017-11-29T08:15:35.521Z,60.96
2017-11-29T08:18:04.570Z,60.34
2017-11-29T08:20:37.661Z,60.82
2017-11-29T08:23:12.583Z,61.62
2017-11-29T08:28:16.490Z,60.62
2017-11-29T08:30:45.616Z,60.25
2017-11-29T08:33:16.838Z,60.47
2017-11-29T08:35:48.317Z,60.33
2017-11-29T08:38:17.529Z,60.41
2017-11-29T08:40:46.987Z,61.06
2017-11-29T08:43:16.212Z,60.85
2017-11-29T08:45:45.472Z,60.79
2017-11-29T08:48:14.870Z,61.40
2017-11-29T08:50:44.599Z,61.76
2017-11-29T08:53:13.963Z,62.23
2017-11-29T08:55:49.484Z,62.48
2017-11-29T08:58:19.766Z,61.94
2017-11-29T09:00:48.959Z,62.18
2017-11-29T09:03:17.996Z,63.25
2017-11-29T09:08:21.474Z,63.29
2017-11-29T09:10:50.610Z,64.49
2017-11-29T09:13:19.814Z,63.28
2017-11-29T09:15:49.439Z,63.99
2017-11-29T09:18:19.840Z,64.21
2017-11-29T09:20:49.674Z,64.76
2017-11-29T09:23:18.963Z,63.71
2017-11-29T09:25:48.994Z,64.48
2017-11-29T09:28:19.772Z,64.72
2017-11-29T09:30:48.967Z,64.28
2017-11-29T09:33:18.265Z,63.71
2017-11-29T09:35:47.649Z,63.82
2017-11-29T09:38:18.400Z,64.23
2017-11-29T09:40:47.898Z,64.20
2017-11-29T09:43:18.076Z,64.07
2017-11-29T09:45:47.565Z,65.15
2017-11-29T09:48:16.885Z,65.22
2017-11-29T09:50:47.610Z,65.99
2017-11-29T09:53:17.891Z,65.28
2017-11-29T09:55:50.954Z,65.39
2017-11-29T09:58:20.335Z,63.67
2017-11-29T10:00:50.502Z,64.24
2017-11-29T10:03:19.792Z,64.52
2017-11-29T10:05:48.889Z,64.37
2017-11-29T10:08:18.260Z,65.02
2017-11-29T10:10:50.148Z,63.38
2017-11-29T10:13:19.928Z,63.33
2017-11-29T10:15:49.162Z,64.02
2017-11-29T10:18:18.991Z,63.55
2017-11-29T10:20:48.997Z,63.58
2017-11-29T10:23:18.158Z,65.31
2017-11-29T10:25:48.768Z,67.31
2017-11-29T10:28:18.645Z,68.11
2017-11-29T10:30:49.575Z,68.22
2017-11-29T10:33:18.781Z,68.67
2017-11-29T10:35:48.195Z,68.88
2017-11-29T10:38:17.991Z,67.95
2017-11-29T10:40:48.891Z,69.16
2017-11-29T10:43:21.158Z,69.66
2017-11-29T10:45:50.472Z,69.54
2017-11-29T10:48:20.360Z,68.53
2017-11-29T10:50:49.680Z,68.82
2017-11-29T10:53:19.130Z,69.29
2017-11-29T10:55:50.448Z,70.43
2017-11-29T10:58:19.931Z,69.20
2017-11-29T11:00:49.086Z,68.35
2017-11-29T11:03:20.004Z,69.46
2017-11-29T11:05:50.039Z,68.60
2017-11-29T11:08:19.317Z,68.53
2017-11-29T11:10:48.633Z,68.93
2017-11-29T11:13:18.155Z,67.92
2017-11-29T11:15:47.544Z,67.26
2017-11-29T11:18:18.660Z,67.24
2017-11-29T11:20:48.660Z,64.83
2017-11-29T11:23:18.704Z,63.99
2017-11-29T11:25:48.840Z,66.01
2017-11-29T11:28:17.995Z,61.49
2017-11-29T11:30:48.780Z,60.77
2017-11-29T11:33:20.455Z,60.59
2017-11-29T11:35:49.851Z,62.02
2017-11-29T11:38:18.984Z,62.88
2017-11-29T11:40:49.843Z,61.44
2017-11-29T11:43:18.834Z,60.30
2017-11-29T11:45:48.114Z,59.11
2017-11-29T11:48:19.975Z,59.58
2017-11-29T11:50:49.895Z,60.87
2017-11-29T11:53:19.573Z,60.59
2017-11-29T11:55:48.772Z,60.51
2017-11-29T11:58:18.818Z,60.71
2017-11-29T12:00:48.784Z,61.32
2017-11-29T12:03:18.142Z,61.08
2017-11-29T12:05:48.431Z,59.66
2017-11-29T12:08:17.768Z,59.56
2017-11-29T12:10:46.964Z,58.85
2017-11-29T12:13:16.431Z,59.95
2017-11-29T12:15:45.567Z,59.25
2017-11-29T12:18:16.356Z,59.30
2017-11-29T12:20:49.389Z,59.88
2017-11-29T12:23:20.735Z,59.58
2017-11-29T12:25:51.573Z,59.50
2017-11-29T12:28:20.753Z,59.86
2017-11-29T12:30:50.114Z,57.94
2017-11-29T12:33:19.312Z,58.31
2017-11-29T12:35:48.724Z,59.01
2017-11-29T12:38:18.082Z,58.97
2017-11-29T12:40:47.211Z,59.04
2017-11-29T12:43:16.488Z,58.79
2017-11-29T12:45:49.666Z,58.43
2017-11-29T12:48:40.333Z,58.74
2017-11-29T12:53:55.915Z,57.66
2017-11-29T12:56:27.776Z,57.75
2017-11-29T12:58:57.229Z,57.94
2017-11-29T13:01:26.872Z,57.66
2017-11-29T13:03:56.284Z,58.66
2017-11-29T13:06:25.392Z,58.68
2017-11-29T13:08:55.476Z,58.96
2017-11-29T13:11:25.682Z,58.99
2017-11-29T13:14:01.124Z,58.67
2017-11-29T13:16:30.324Z,58.49
2017-11-29T13:18:59.362Z,58.25
2017-11-29T13:21:31.574Z,58.63
2017-11-29T13:24:01.149Z,59.91
2017-11-29T13:26:31.323Z,60.01
2017-11-29T13:29:03.087Z,60.09
2017-11-29T13:31:32.312Z,59.59
2017-11-29T13:34:02.306Z,60.28
2017-11-29T13:36:31.617Z,60.66
2017-11-29T13:39:00.895Z,60.12
2017-11-29T13:41:30.498Z,60.62
2017-11-29T13:43:59.703Z,60.42
2017-11-29T13:46:29.655Z,60.35
2017-11-29T13:48:58.812Z,59.58
2017-11-29T13:51:28.254Z,59.93
2017-11-29T13:53:57.516Z,59.80
2017-11-29T13:56:27.786Z,60.21
2017-11-29T13:58:57.956Z,60.44
2017-11-29T14:01:28.024Z,59.89
2017-11-29T14:03:57.239Z,60.15
2017-11-29T14:06:28.245Z,60.17
2017-11-29T14:08:57.534Z,59.01
2017-11-29T14:11:26.526Z,59.71
2017-11-29T14:13:55.658Z,60.31
2017-11-29T14:16:25.607Z,60.33
2017-11-29T14:18:55.607Z,60.97
2017-11-29T14:21:26.194Z,60.42
2017-11-29T14:23:56.308Z,60.03
2017-11-29T14:26:25.384Z,60.32
2017-11-29T14:28:54.506Z,61.27
2017-11-29T14:31:23.427Z,60.56
2017-11-29T14:33:52.449Z,60.33
2017-11-29T14:36:21.766Z,59.96
2017-11-29T14:38:50.872Z,59.67
2017-11-29T14:41:21.787Z,59.98
2017-11-29T14:43:51.812Z,60.22
2017-11-29T14:46:20.685Z,60.08
2017-11-29T14:48:49.719Z,60.39
2017-11-29T14:51:18.819Z,60.19
2017-11-29T14:53:49.641Z,60.37
2017-11-29T14:56:19.610Z,60.82
2017-11-29T14:58:49.700Z,61.39
2017-11-29T15:01:19.609Z,61.74
2017-11-29T15:03:50.648Z,61.71
2017-11-29T15:06:20.667Z,61.67
2017-11-29T15:08:50.652Z,61.89
2017-11-29T15:11:23.677Z,62.01
2017-11-29T15:13:52.973Z,62.13
2017-11-29T15:16:22.823Z,61.63
2017-11-29T15:18:53.713Z,61.54
2017-11-29T15:21:22.612Z,61.87
2017-11-29T15:23:51.711Z,62.58
2017-11-29T15:26:20.883Z,62.87
2017-11-29T15:28:50.884Z,62.89
2017-11-29T15:31:22.626Z,63.14
2017-11-29T15:33:51.676Z,63.51
2017-11-29T15:36:20.690Z,63.20
2017-11-29T15:38:53.655Z,63.94
2017-11-29T15:41:22.757Z,64.51
2017-11-29T15:43:52.044Z,64.02
2017-11-29T15:46:24.366Z,64.94
2017-11-29T15:48:53.522Z,65.24
2017-11-29T15:51:22.721Z,66.22
2017-11-29T15:53:51.920Z,65.14
2017-11-29T15:56:23.878Z,66.14
2017-11-29T15:58:53.864Z,66.82
2017-11-29T16:01:22.896Z,67.44
2017-11-29T16:03:51.990Z,67.91
2017-11-29T16:06:26.719Z,66.41
2017-11-29T16:08:55.712Z,65.66
2017-11-29T16:11:25.714Z,65.35
2017-11-29T16:13:56.669Z,65.91
2017-11-29T16:16:26.632Z,65.93
2017-11-29T16:18:56.658Z,66.59
2017-11-29T16:24:00.836Z,66.80
2017-11-29T16:26:30.220Z,67.35
2017-11-29T16:28:59.774Z,67.38
2017-11-29T16:31:29.411Z,67.37
2017-11-29T16:33:58.713Z,67.30
2017-11-29T16:36:28.247Z,67.34
2017-11-29T16:38:59.972Z,67.53
2017-11-29T16:41:30.507Z,67.61
2017-11-29T16:44:00.246Z,67.42
2017-11-29T16:46:30.041Z,67.35
2017-11-29T16:48:59.857Z,67.25
2017-11-29T16:51:29.492Z,67.09
2017-11-29T16:53:58.970Z,67.21
2017-11-29T16:56:28.891Z,67.18
2017-11-29T16:58:58.522Z,68.14
2017-11-29T17:01:27.720Z,67.60
2017-11-29T17:03:57.941Z,67.87
2017-11-29T17:06:27.204Z,68.17
2017-11-29T17:08:57.367Z,68.20
2017-11-29T17:11:29.802Z,68.17
2017-11-29T17:14:00.077Z,69.23
2017-11-29T17:16:29.059Z,68.82
2017-11-29T17:18:59.269Z,68.59
2017-11-29T17:21:28.381Z,68.52
2017-11-29T17:23:57.444Z,68.60
2017-11-29T17:26:26.945Z,68.69
2017-11-29T17:28:56.125Z,68.40
2017-11-29T17:31:25.952Z,68.41
2017-11-29T17:33:57.141Z,68.49
2017-11-29T17:36:26.259Z,68.33
2017-11-29T17:38:55.240Z,68.56
2017-11-29T17:41:25.331Z,68.96
2017-11-29T17:43:54.436Z,69.30
2017-11-29T17:46:23.471Z,69.56
2017-11-29T17:48:55.876Z,69.75
2017-11-29T17:51:25.244Z,70.53
2017-11-29T17:53:54.505Z,70.71
2017-11-29T17:56:25.667Z,71.15
2017-11-29T17:58:54.989Z,71.43
2017-11-29T18:01:24.960Z,71.43
2017-11-29T18:03:54.109Z,71.51
2017-11-29T18:06:23.265Z,71.55
2017-11-29T18:08:53.319Z,71.78
2017-11-29T18:11:23.365Z,72.26
2017-11-29T18:13:52.401Z,72.26
2017-11-29T18:16:21.502Z,72.74
2017-11-29T18:18:50.703Z,72.98
2017-11-29T18:21:19.891Z,73.61
2017-11-29T18:23:49.317Z,73.72
2017-11-29T18:26:19.265Z,73.92
2017-11-29T18:28:48.559Z,74.27
2017-11-29T18:31:18.458Z,75.79
2017-11-29T18:33:50.613Z,76.11
2017-11-29T18:36:20.647Z,74.51
2017-11-29T18:38:50.937Z,74.95
2017-11-29T18:41:22.107Z,74.43
2017-11-29T18:43:51.427Z,73.67
2017-11-29T18:46:20.684Z,72.60
2017-11-29T18:48:50.663Z,72.41
2017-11-29T18:51:19.789Z,72.45
2017-11-29T18:53:48.783Z,72.36
2017-11-29T18:56:18.923Z,72.32
2017-11-29T18:58:47.940Z,72.36
2017-11-29T19:01:20.790Z,72.66
2017-11-29T19:03:51.019Z,72.84
2017-11-29T19:06:20.257Z,72.84
2017-11-29T19:08:50.427Z,73.22
2017-11-29T19:11:20.454Z,73.41
2017-11-29T19:13:49.696Z,73.56
2017-11-29T19:16:20.813Z,74.04
2017-11-29T19:18:49.823Z,74.56
2017-11-29T19:21:19.214Z,74.77
2017-11-29T19:24:05.177Z,75.06
2017-11-29T19:26:38.912Z,75.25
2017-11-29T19:29:08.293Z,75.66
2017-11-29T19:31:37.377Z,75.42
2017-11-29T19:34:07.327Z,75.20
2017-11-29T19:36:36.565Z,75.15
2017-11-29T19:39:06.772Z,75.01
2017-11-29T19:41:36.323Z,75.11
2017-11-29T19:44:05.563Z,74.95
2017-11-29T19:46:34.761Z,75.32
2017-11-29T19:49:04.661Z,76.00
2017-11-29T19:51:34.680Z,76.14
2017-11-29T19:54:03.699Z,76.95
2017-11-29T19:56:32.834Z,78.08
2017-11-29T19:59:02.826Z,77.61
2017-11-29T20:01:32.590Z,76.92
2017-11-29T20:04:01.810Z,77.00
2017-11-29T20:06:30.859Z,76.91
2017-11-29T20:09:01.928Z,76.79
2017-11-29T20:14:06.755Z,76.52
2017-11-29T20:16:37.290Z,76.94
2017-11-29T20:19:08.159Z,77.13
2017-11-29T20:21:38.290Z,77.58
2017-11-29T20:24:08.564Z,77.40
2017-11-29T20:29:14.097Z,77.37
2017-11-29T20:31:43.369Z,76.89
2017-11-29T20:34:12.543Z,77.02
2017-11-29T20:36:42.722Z,77.09
2017-11-29T20:39:12.090Z,77.29
2017-11-29T20:41:41.517Z,77.64
2017-11-29T20:44:11.473Z,77.67
2017-11-29T20:46:41.482Z,77.39
2017-11-29T20:49:10.874Z,77.12
2017-11-29T20:51:41.090Z,77.60
2017-11-29T20:54:10.751Z,77.70
2017-11-29T20:56:40.125Z,77.49
2017-11-29T20:59:10.744Z,77.76
2017-11-29T21:01:45.170Z,77.56
2017-11-29T21:04:17.694Z,77.55
2017-11-29T21:06:47.592Z,77.49
2017-11-29T21:09:16.913Z,77.45
2017-11-29T21:11:49.749Z,77.47
2017-11-29T21:14:20.125Z,77.59
2017-11-29T21:16:50.924Z,77.73
2017-11-29T21:19:21.995Z,77.85
2017-11-29T21:21:51.856Z,77.94
2017-11-29T21:24:21.425Z,78.23
2017-11-29T21:26:51.465Z,78.65
2017-11-29T21:29:22.226Z,79.06
2017-11-29T21:31:51.941Z,79.80
2017-11-29T21:34:21.222Z,80.27
2017-11-29T21:36:51.369Z,81.67
2017-11-29T21:39:21.666Z,80.60
2017-11-29T21:41:51.155Z,80.06
2017-11-29T21:44:21.723Z,79.63
2017-11-29T21:46:51.213Z,78.99
2017-11-29T21:49:20.695Z,79.12
2017-11-29T21:51:50.260Z,78.76
2017-11-29T21:54:19.459Z,78.54
2017-11-29T21:56:48.766Z,79.24
2017-11-29T21:59:18.337Z,79.66
2017-11-29T22:01:48.352Z,79.46
2017-11-29T22:04:17.516Z,79.63
2017-11-29T22:06:48.964Z,79.63
2017-11-29T22:09:18.060Z,78.92
2017-11-29T22:11:48.023Z,78.77
2017-11-29T22:14:17.230Z,78.85
2017-11-29T22:16:46.596Z,79.53
2017-11-29T22:19:16.517Z,80.59
2017-11-29T22:21:45.905Z,79.95
2017-11-29T22:24:15.293Z,79.91
2017-11-29T22:26:44.649Z,80.19
2017-11-29T22:29:13.875Z,80.53
2017-11-29T22:31:42.839Z,80.92
2017-11-29T22:34:11.779Z,81.10
2017-11-29T22:36:40.870Z,81.20
2017-11-29T22:39:10.006Z,82.15
2017-11-29T22:41:40.751Z,80.82
2017-11-29T22:44:11.142Z,81.21
2017-11-29T22:46:40.142Z,80.51
2017-11-29T22:49:12.505Z,80.18
2017-11-29T22:51:41.648Z,79.83
2017-11-29T22:54:14.635Z,79.80
2017-11-29T22:56:44.647Z,80.14
2017-11-29T22:59:13.745Z,80.84
2017-11-29T23:04:17.151Z,80.98
2017-11-29T23:06:47.688Z,81.33
2017-11-29T23:09:16.889Z,81.22
2017-11-29T23:11:46.158Z,81.13
2017-11-29T23:14:16.103Z,81.54
2017-11-29T23:16:46.409Z,82.33
2017-11-29T23:19:15.614Z,81.78
2017-11-29T23:21:44.627Z,80.88
2017-11-29T23:24:17.126Z,79.99
2017-11-29T23:26:46.191Z,79.60
2017-11-29T23:29:16.250Z,79.21
2017-11-29T23:31:45.385Z,79.08
2017-11-29T23:34:14.510Z,79.12
2017-11-29T23:36:43.685Z,78.62
2017-11-29T23:39:15.239Z,78.04
2017-11-29T23:41:44.294Z,78.07
2017-11-29T23:44:14.266Z,77.91
2017-11-29T23:46:43.464Z,77.39
2017-11-29T23:49:13.429Z,77.17
2017-11-29T23:51:43.826Z,77.20
2017-11-29T23:54:13.168Z,77.41
2017-11-29T23:56:43.943Z,77.37
2017-11-29T23:59:12.984Z,77.16
